^^

Metar (rayon 200 km actualisée toutes les 30 minutes)






LFBU - Brie/Champniers, France
Distance de la station: SSE 07km
Mise à jour: 22/10/2014 14:00
nuageux
nuageux
 Wind from NNO
Vent: NNO 11 km/h
Température: 14°C
Point de Rosée: 5°C
Humidité: 55%
Baromètre: 1030 hPa
Nuages: nuageux
Visibilité: 10 km
Nuages details: nuageux 1250 m
nuageux 1463 m
2014/10/22 12:00 LFBU 221200Z AUTO 33006KT 290V010 9999 BKN041 BKN048 14/05 Q1030
LFBG - Cognac/Chateaubernard, France
Distance de la station: OSO 35km
Mise à jour: 22/10/2014 14:00
Quelques Nuages
Quelques Nuages
 Wind from N
Vent: N 15 km/h
Température: 16°C
Point de Rosée: 6°C
Humidité: 52%
Baromètre: 1031 hPa
Nuages: Quelques Nuages
Visibilité: 10 km
Nuages details: Quelques Nuages 1128 m
2014/10/22 12:00 LFBG 221200Z AUTO 35008KT 320V020 9999 FEW037 16/06 Q1031
 
LFBL - Limoges/Bellegarde, France
Distance de la station: E 82km
Mise à jour: 22/10/2014 14:00
Couvert
Couvert
 Wind from N
Vent: N 15 km/h
Température: 11°C
Point de Rosée: 3°C
Humidité: 58%
Baromètre: 1029 hPa
Nuages: Couvert
Visibilité: 10 km
Nuages details: nuageux 1097 m
Couvert 1280 m
2014/10/22 12:00 LFBL 221200Z AUTO 35008KT 300V030 9999 BKN036 OVC042 11/03 Q1029
LFBI - Poitiers/France
Distance de la station: N 93km
Mise à jour: 22/10/2014 14:00
nuageux
nuageux
 Wind from NNO
Vent: NNO 20 km/h
Température: 15°C
Point de Rosée: 7°C
Humidité: 59%
Baromètre: 1030 hPa
Nuages: nuageux
Visibilité: 10 km
Nuages details: Quelques Nuages 1128 m
nuageux 1372 m
2014/10/22 12:00 LFBI 221200Z AUTO 33011KT 9999 FEW037 BKN045 15/07 Q1030
 
LFBH - La Rochelle/France
Distance de la station: ONO 106km
Mise à jour: 22/10/2014 14:00
partiellement nuageux
partiellement nuageux
 Wind from NO
Vent: NO 17 km/h
Température: 15°C
Point de Rosée: 5°C
Humidité: 51%
Baromètre: 1031 hPa
Nuages: partiellement nuageux
Visibilité: 10 km
2014/10/22 12:00 LFBH 221200Z AUTO 31009KT 9999 NSC 15/05 Q1031
LFBE - Bergerac/France
Distance de la station: SSE 107km
Mise à jour: 22/10/2014 14:00
partiellement nuageux
partiellement nuageux
 Wind from NO
Vent: NO 11 km/h
Température: 15°C
Point de Rosée: 6°C
Humidité: 55%
Baromètre: 1030 hPa
Nuages: partiellement nuageux
Visibilité: 10 km
Nuages details: partiellement nuageux 1280 m
2014/10/22 12:00 LFBE 221200Z AUTO 32006KT 280V360 9999 SCT042 15/06 Q1030
 
LFBD - Bordeaux/France
Distance de la station: SSO 121km
Mise à jour: 22/10/2014 14:00
nuageux
nuageux
 Wind from NNO
Vent: NNO 11 km/h
Température: 16°C
Point de Rosée: 7°C
Humidité: 55%
Baromètre: 1031 hPa
Nuages: nuageux
Visibilité: 10 km
Nuages details: nuageux 1341 m
2014/10/22 12:00 LFBD 221200Z AUTO 34006KT 310V020 9999 BKN044 16/07 Q1031
LFRI - La Roche-sur-Yon/France
Distance de la station: NO 156km
Mise à jour: 22/10/2014 14:00
nuageux
nuageux
 Wind from NNO
Vent: NNO 11 km/h
Température: 15°C
Point de Rosée: 7°C
Humidité: 59%
Baromètre: 1031 hPa
Nuages: nuageux
Visibilité: 10 km
Nuages details: nuageux 1128 m
2014/10/22 12:00 LFRI 221200Z AUTO 33006KT 280V020 9999 BKN037 15/07 Q1031
 
LFBC - Cazaux/France
Distance de la station: SO 167km
Mise à jour: 22/10/2014 14:00
nuageux
nuageux
 Wind from NNE
Vent: NNE 7 km/h
Température: 16°C
Point de Rosée: 6°C
Humidité: 52%
Baromètre: 1031 hPa
Nuages: nuageux
Visibilité: 10 km
Nuages details: nuageux 1219 m
2014/10/22 12:00 LFBC 221200Z AUTO 03004KT 320V070 9999 BKN040 16/06 Q1031
LFLX - Chateauroux/France
Distance de la station: NE 174km
Mise à jour: 22/10/2014 14:00
nuageux
nuageux
 Wind from NO
Vent: NO 20 km/h
Température: 14°C
Point de Rosée: 6°C
Humidité: 59%
Baromètre: 1029 hPa
Nuages: nuageux
Visibilité: 10 km
Nuages details: Quelques Nuages 1006 m
nuageux 1615 m
2014/10/22 12:00 LFLX 221200Z 31011KT 250V340 9999 FEW033 BKN053 14/06 Q1029 NOSIG
 
LFBA - Agen/France
Distance de la station: SSE 179km
Mise à jour: 22/10/2014 14:00
Quelques Nuages
Quelques Nuages
 Wind from NO
Vent: NO 17 km/h
Température: 16°C
Point de Rosée: 5°C
Humidité: 48%
Baromètre: 1030 hPa
Nuages: Quelques Nuages
Visibilité: 10 km
Nuages details: Quelques Nuages 1433 m
2014/10/22 12:00 LFBA 221200Z AUTO 32009KT 9999 FEW047 16/05 Q1030